sensor_id;sensor_type;location;lat;lon;timestamp;P1;durP1;ratioP1;P2;durP2;ratioP2
82558;SDS011;72227;42.004;21.364;2024-02-15T00:02:20;774.72;;;737.08;;
82558;SDS011;72227;42.004;21.364;2024-02-15T00:04:46;769.75;;;732.47;;
82558;SDS011;72227;42.004;21.364;2024-02-15T00:07:12;776.80;;;738.95;;
82558;SDS011;72227;42.004;21.364;2024-02-15T00:09:38;775.25;;;737.72;;
82558;SDS011;72227;42.004;21.364;2024-02-15T00:12:05;795.88;;;757.13;;
82558;SDS011;72227;42.004;21.364;2024-02-15T00:14:31;777.80;;;740.30;;
82558;SDS011;72227;42.004;21.364;2024-02-15T00:16:57;788.97;;;750.17;;
82558;SDS011;72227;42.004;21.364;2024-02-15T00:19:23;792.28;;;753.38;;
82558;SDS011;72227;42.004;21.364;2024-02-15T00:21:49;764.97;;;727.80;;
82558;SDS011;72227;42.004;21.364;2024-02-15T00:24:16;768.08;;;731.05;;
82558;SDS011;72227;42.004;21.364;2024-02-15T00:26:42;780.25;;;742.58;;
82558;SDS011;72227;42.004;21.364;2024-02-15T00:29:08;779.30;;;741.47;;
82558;SDS011;72227;42.004;21.364;2024-02-15T00:31:34;800.55;;;760.95;;
82558;SDS011;72227;42.004;21.364;2024-02-15T00:34:00;781.58;;;743.25;;
82558;SDS011;72227;42.004;21.364;2024-02-15T00:36:29;780.58;;;742.50;;
82558;SDS011;72227;42.004;21.364;2024-02-15T00:38:55;783.53;;;744.92;;
82558;SDS011;72227;42.004;21.364;2024-02-15T00:41:21;783.95;;;744.83;;
82558;SDS011;72227;42.004;21.364;2024-02-15T00:43:47;779.47;;;740.80;;
82558;SDS011;72227;42.004;21.364;2024-02-15T00:46:15;772.47;;;734.80;;
82558;SDS011;72227;42.004;21.364;2024-02-15T00:48:41;826.63;;;786.63;;
82558;SDS011;72227;42.004;21.364;2024-02-15T00:51:07;791.42;;;752.47;;
82558;SDS011;72227;42.004;21.364;2024-02-15T00:53:34;783.28;;;745.03;;
82558;SDS011;72227;42.004;21.364;2024-02-15T00:56:00;793.20;;;754.17;;
82558;SDS011;72227;42.004;21.364;2024-02-15T00:58:26;787.30;;;749.10;;
82558;SDS011;72227;42.004;21.364;2024-02-15T01:00:53;790.83;;;752.63;;
82558;SDS011;72227;42.004;21.364;2024-02-15T01:03:19;780.70;;;742.72;;
82558;SDS011;72227;42.004;21.364;2024-02-15T01:05:45;781.83;;;743.20;;
82558;SDS011;72227;42.004;21.364;2024-02-15T01:08:11;798.28;;;758.90;;
82558;SDS011;72227;42.004;21.364;2024-02-15T01:10:37;791.58;;;752.67;;
82558;SDS011;72227;42.004;21.364;2024-02-15T01:13:04;800.10;;;761.33;;
82558;SDS011;72227;42.004;21.364;2024-02-15T01:15:30;786.72;;;748.40;;
82558;SDS011;72227;42.004;21.364;2024-02-15T01:17:56;790.58;;;752.00;;
82558;SDS011;72227;42.004;21.364;2024-02-15T01:20:22;780.58;;;742.53;;
82558;SDS011;72227;42.004;21.364;2024-02-15T01:22:48;795.70;;;757.22;;
82558;SDS011;72227;42.004;21.364;2024-02-15T01:25:16;787.85;;;749.30;;
82558;SDS011;72227;42.004;21.364;2024-02-15T01:27:42;784.58;;;746.35;;
82558;SDS011;72227;42.004;21.364;2024-02-15T01:30:08;784.47;;;746.35;;
82558;SDS011;72227;42.004;21.364;2024-02-15T01:32:35;782.25;;;744.00;;
82558;SDS011;72227;42.004;21.364;2024-02-15T01:35:02;776.33;;;738.63;;
82558;SDS011;72227;42.004;21.364;2024-02-15T01:37:28;794.25;;;755.33;;
82558;SDS011;72227;42.004;21.364;2024-02-15T01:39:54;778.42;;;740.95;;
82558;SDS011;72227;42.004;21.364;2024-02-15T01:42:20;781.08;;;743.55;;
82558;SDS011;72227;42.004;21.364;2024-02-15T01:44:46;784.70;;;746.47;;
82558;SDS011;72227;42.004;21.364;2024-02-15T01:47:14;793.30;;;754.25;;
82558;SDS011;72227;42.004;21.364;2024-02-15T01:49:41;787.65;;;749.00;;
82558;SDS011;72227;42.004;21.364;2024-02-15T01:52:07;783.50;;;745.28;;
82558;SDS011;72227;42.004;21.364;2024-02-15T01:54:35;792.42;;;754.17;;
82558;SDS011;72227;42.004;21.364;2024-02-15T01:57:04;817.28;;;776.33;;
82558;SDS011;72227;42.004;21.364;2024-02-15T01:59:30;787.50;;;749.58;;
82558;SDS011;72227;42.004;21.364;2024-02-15T02:01:56;773.45;;;735.35;;
82558;SDS011;72227;42.004;21.364;2024-02-15T02:04:22;788.75;;;749.80;;
82558;SDS011;72227;42.004;21.364;2024-02-15T02:06:48;795.35;;;756.03;;
82558;SDS011;72227;42.004;21.364;2024-02-15T02:09:14;798.28;;;758.78;;
82558;SDS011;72227;42.004;21.364;2024-02-15T02:11:41;775.75;;;738.38;;
82558;SDS011;72227;42.004;21.364;2024-02-15T02:14:07;796.28;;;757.28;;
82558;SDS011;72227;42.004;21.364;2024-02-15T02:16:34;787.10;;;748.60;;
82558;SDS011;72227;42.004;21.364;2024-02-15T02:19:04;791.65;;;753.28;;
82558;SDS011;72227;42.004;21.364;2024-02-15T02:21:36;766.50;;;729.38;;
82558;SDS011;72227;42.004;21.364;2024-02-15T02:24:04;781.72;;;743.63;;
82558;SDS011;72227;42.004;21.364;2024-02-15T02:26:33;783.70;;;745.75;;
82558;SDS011;72227;42.004;21.364;2024-02-15T02:28:59;784.63;;;746.03;;
82558;SDS011;72227;42.004;21.364;2024-02-15T02:31:32;809.25;;;769.38;;
82558;SDS011;72227;42.004;21.364;2024-02-15T02:33:58;778.72;;;740.67;;
82558;SDS011;72227;42.004;21.364;2024-02-15T02:36:24;780.03;;;742.28;;
82558;SDS011;72227;42.004;21.364;2024-02-15T02:38:51;778.35;;;740.95;;
82558;SDS011;72227;42.004;21.364;2024-02-15T02:41:17;768.15;;;730.72;;
82558;SDS011;72227;42.004;21.364;2024-02-15T02:43:48;782.15;;;744.67;;
82558;SDS011;72227;42.004;21.364;2024-02-15T02:46:14;776.45;;;738.80;;
82558;SDS011;72227;42.004;21.364;2024-02-15T02:48:40;768.88;;;732.15;;
82558;SDS011;72227;42.004;21.364;2024-02-15T02:51:06;778.92;;;741.25;;
82558;SDS011;72227;42.004;21.364;2024-02-15T02:53:33;777.42;;;739.67;;
82558;SDS011;72227;42.004;21.364;2024-02-15T02:55:59;791.80;;;753.22;;
82558;SDS011;72227;42.004;21.364;2024-02-15T02:58:25;779.63;;;742.25;;
82558;SDS011;72227;42.004;21.364;2024-02-15T03:00:51;780.53;;;742.67;;
82558;SDS011;72227;42.004;21.364;2024-02-15T03:03:18;783.50;;;745.63;;
82558;SDS011;72227;42.004;21.364;2024-02-15T03:05:44;786.28;;;747.95;;
82558;SDS011;72227;42.004;21.364;2024-02-15T03:08:13;777.80;;;740.38;;
82558;SDS011;72227;42.004;21.364;2024-02-15T03:10:40;774.55;;;736.85;;
82558;SDS011;72227;42.004;21.364;2024-02-15T03:13:06;772.92;;;735.72;;
82558;SDS011;72227;42.004;21.364;2024-02-15T03:15:37;785.15;;;747.08;;
82558;SDS011;72227;42.004;21.364;2024-02-15T03:18:03;775.25;;;737.78;;
82558;SDS011;72227;42.004;21.364;2024-02-15T03:20:32;768.17;;;731.05;;
82558;SDS011;72227;42.004;21.364;2024-02-15T03:22:59;768.00;;;731.33;;
82558;SDS011;72227;42.004;21.364;2024-02-15T03:25:26;784.17;;;747.00;;
82558;SDS011;72227;42.004;21.364;2024-02-15T03:27:54;776.05;;;738.80;;
82558;SDS011;72227;42.004;21.364;2024-02-15T03:30:24;782.38;;;744.83;;
82558;SDS011;72227;42.004;21.364;2024-02-15T03:32:50;761.15;;;724.15;;
82558;SDS011;72227;42.004;21.364;2024-02-15T03:35:17;796.20;;;757.22;;
82558;SDS011;72227;42.004;21.364;2024-02-15T03:37:43;782.20;;;743.72;;
82558;SDS011;72227;42.004;21.364;2024-02-15T03:40:10;760.83;;;724.17;;
82558;SDS011;72227;42.004;21.364;2024-02-15T03:42:36;823.33;;;783.03;;
82558;SDS011;72227;42.004;21.364;2024-02-15T03:45:03;794.45;;;755.15;;
82558;SDS011;72227;42.004;21.364;2024-02-15T03:47:31;790.45;;;752.42;;
82558;SDS011;72227;42.004;21.364;2024-02-15T03:49:58;771.45;;;733.92;;
82558;SDS011;72227;42.004;21.364;2024-02-15T03:52:24;793.35;;;754.50;;
82558;SDS011;72227;42.004;21.364;2024-02-15T03:54:50;802.40;;;763.08;;
82558;SDS011;72227;42.004;21.364;2024-02-15T03:57:17;776.95;;;739.33;;
82558;SDS011;72227;42.004;21.364;2024-02-15T03:59:46;775.67;;;737.90;;
82558;SDS011;72227;42.004;21.364;2024-02-15T04:02:17;781.47;;;743.60;;
82558;SDS011;72227;42.004;21.364;2024-02-15T04:04:43;775.80;;;737.58;;
82558;SDS011;72227;42.004;21.364;2024-02-15T04:07:13;762.55;;;724.88;;
82558;SDS011;72227;42.004;21.364;2024-02-15T04:09:39;784.15;;;745.42;;
82558;SDS011;72227;42.004;21.364;2024-02-15T04:12:05;793.30;;;753.53;;
82558;SDS011;72227;42.004;21.364;2024-02-15T04:14:35;797.17;;;757.60;;
82558;SDS011;72227;42.004;21.364;2024-02-15T04:17:03;778.63;;;740.45;;
82558;SDS011;72227;42.004;21.364;2024-02-15T04:19:30;791.22;;;752.28;;
82558;SDS011;72227;42.004;21.364;2024-02-15T04:21:56;801.72;;;762.47;;
82558;SDS011;72227;42.004;21.364;2024-02-15T04:24:22;777.38;;;739.42;;
82558;SDS011;72227;42.004;21.364;2024-02-15T04:26:48;782.35;;;743.78;;
82558;SDS011;72227;42.004;21.364;2024-02-15T04:29:15;786.25;;;747.47;;
82558;SDS011;72227;42.004;21.364;2024-02-15T04:31:41;789.25;;;750.53;;
82558;SDS011;72227;42.004;21.364;2024-02-15T04:34:08;777.95;;;740.38;;
82558;SDS011;72227;42.004;21.364;2024-02-15T04:36:35;789.55;;;750.75;;
82558;SDS011;72227;42.004;21.364;2024-02-15T04:39:01;795.15;;;755.75;;
82558;SDS011;72227;42.004;21.364;2024-02-15T04:41:30;808.22;;;768.17;;
82558;SDS011;72227;42.004;21.364;2024-02-15T04:43:56;804.17;;;764.15;;
82558;SDS011;72227;42.004;21.364;2024-02-15T04:46:22;797.47;;;757.78;;
82558;SDS011;72227;42.004;21.364;2024-02-15T04:48:49;792.30;;;753.72;;
82558;SDS011;72227;42.004;21.364;2024-02-15T04:51:16;788.20;;;749.40;;
82558;SDS011;72227;42.004;21.364;2024-02-15T04:53:43;783.00;;;743.78;;
82558;SDS011;72227;42.004;21.364;2024-02-15T04:56:11;783.65;;;745.47;;
82558;SDS011;72227;42.004;21.364;2024-02-15T04:58:41;793.75;;;753.65;;
82558;SDS011;72227;42.004;21.364;2024-02-15T05:01:16;782.63;;;744.05;;
82558;SDS011;72227;42.004;21.364;2024-02-15T05:03:47;793.55;;;754.65;;
82558;SDS011;72227;42.004;21.364;2024-02-15T05:06:13;794.53;;;754.45;;
82558;SDS011;72227;42.004;21.364;2024-02-15T05:08:39;791.75;;;752.63;;
82558;SDS011;72227;42.004;21.364;2024-02-15T05:11:11;775.42;;;737.88;;
82558;SDS011;72227;42.004;21.364;2024-02-15T05:13:43;784.55;;;745.90;;
82558;SDS011;72227;42.004;21.364;2024-02-15T05:16:10;783.90;;;745.20;;
82558;SDS011;72227;42.004;21.364;2024-02-15T05:18:36;797.33;;;757.88;;
82558;SDS011;72227;42.004;21.364;2024-02-15T05:21:05;786.38;;;747.60;;
82558;SDS011;72227;42.004;21.364;2024-02-15T05:23:34;792.47;;;754.22;;
82558;SDS011;72227;42.004;21.364;2024-02-15T05:26:00;791.20;;;752.60;;
82558;SDS011;72227;42.004;21.364;2024-02-15T05:28:26;773.47;;;735.53;;
82558;SDS011;72227;42.004;21.364;2024-02-15T05:31:08;807.53;;;766.80;;
82558;SDS011;72227;42.004;21.364;2024-02-15T05:33:36;802.53;;;762.20;;
82558;SDS011;72227;42.004;21.364;2024-02-15T05:36:05;794.85;;;755.75;;
82558;SDS011;72227;42.004;21.364;2024-02-15T05:38:33;789.28;;;750.47;;
82558;SDS011;72227;42.004;21.364;2024-02-15T05:41:00;783.72;;;745.22;;
82558;SDS011;72227;42.004;21.364;2024-02-15T05:43:26;781.58;;;743.38;;
82558;SDS011;72227;42.004;21.364;2024-02-15T05:45:52;793.03;;;753.92;;
82558;SDS011;72227;42.004;21.364;2024-02-15T05:48:18;792.88;;;754.15;;
82558;SDS011;72227;42.004;21.364;2024-02-15T05:50:46;789.35;;;750.95;;
82558;SDS011;72227;42.004;21.364;2024-02-15T05:53:12;773.17;;;734.90;;
82558;SDS011;72227;42.004;21.364;2024-02-15T05:55:38;784.80;;;746.05;;
82558;SDS011;72227;42.004;21.364;2024-02-15T05:58:09;776.45;;;738.15;;
82558;SDS011;72227;42.004;21.364;2024-02-15T06:00:37;786.17;;;747.28;;
82558;SDS011;72227;42.004;21.364;2024-02-15T06:03:06;800.38;;;761.38;;
82558;SDS011;72227;42.004;21.364;2024-02-15T06:05:34;795.50;;;756.45;;
82558;SDS011;72227;42.004;21.364;2024-02-15T06:08:00;787.40;;;748.13;;
82558;SDS011;72227;42.004;21.364;2024-02-15T06:10:26;800.30;;;759.22;;
82558;SDS011;72227;42.004;21.364;2024-02-15T06:12:54;799.38;;;759.30;;
82558;SDS011;72227;42.004;21.364;2024-02-15T06:15:20;787.15;;;748.58;;
82558;SDS011;72227;42.004;21.364;2024-02-15T06:17:46;807.78;;;767.38;;
82558;SDS011;72227;42.004;21.364;2024-02-15T06:20:13;787.78;;;748.30;;
82558;SDS011;72227;42.004;21.364;2024-02-15T06:22:39;793.30;;;753.70;;
82558;SDS011;72227;42.004;21.364;2024-02-15T06:25:05;805.58;;;765.72;;
82558;SDS011;72227;42.004;21.364;2024-02-15T06:27:31;798.15;;;758.00;;
82558;SDS011;72227;42.004;21.364;2024-02-15T06:29:57;783.55;;;745.03;;
82558;SDS011;72227;42.004;21.364;2024-02-15T06:32:43;774.83;;;736.55;;
82558;SDS011;72227;42.004;21.364;2024-02-15T06:35:28;794.10;;;755.20;;
82558;SDS011;72227;42.004;21.364;2024-02-15T06:38:12;799.70;;;760.72;;
82558;SDS011;72227;42.004;21.364;2024-02-15T06:40:57;774.53;;;736.63;;
82558;SDS011;72227;42.004;21.364;2024-02-15T06:43:23;770.42;;;733.08;;
82558;SDS011;72227;42.004;21.364;2024-02-15T06:45:49;777.88;;;740.30;;
82558;SDS011;72227;42.004;21.364;2024-02-15T06:48:16;766.47;;;729.03;;
82558;SDS011;72227;42.004;21.364;2024-02-15T06:50:42;772.30;;;734.55;;
82558;SDS011;72227;42.004;21.364;2024-02-15T06:53:08;761.42;;;724.95;;
82558;SDS011;72227;42.004;21.364;2024-02-15T06:55:34;760.30;;;723.30;;
82558;SDS011;72227;42.004;21.364;2024-02-15T06:58:01;810.22;;;768.60;;
82558;SDS011;72227;42.004;21.364;2024-02-15T07:00:27;777.95;;;739.78;;
82558;SDS011;72227;42.004;21.364;2024-02-15T07:02:55;792.50;;;752.65;;
82558;SDS011;72227;42.004;21.364;2024-02-15T07:05:21;820.95;;;778.60;;
82558;SDS011;72227;42.004;21.364;2024-02-15T07:07:48;770.58;;;732.95;;
82558;SDS011;72227;42.004;21.364;2024-02-15T07:10:15;807.78;;;766.40;;
82558;SDS011;72227;42.004;21.364;2024-02-15T07:12:44;814.25;;;771.90;;
82558;SDS011;72227;42.004;21.364;2024-02-15T07:15:10;822.05;;;779.70;;
82558;SDS011;72227;42.004;21.364;2024-02-15T07:17:37;811.63;;;769.72;;
82558;SDS011;72227;42.004;21.364;2024-02-15T07:20:03;808.30;;;767.30;;
82558;SDS011;72227;42.004;21.364;2024-02-15T07:22:30;805.05;;;763.35;;
82558;SDS011;72227;42.004;21.364;2024-02-15T07:24:57;788.67;;;749.05;;
82558;SDS011;72227;42.004;21.364;2024-02-15T07:27:23;802.58;;;761.72;;
82558;SDS011;72227;42.004;21.364;2024-02-15T07:29:51;787.70;;;747.92;;
82558;SDS011;72227;42.004;21.364;2024-02-15T07:32:24;787.35;;;747.03;;
82558;SDS011;72227;42.004;21.364;2024-02-15T07:35:00;791.65;;;752.20;;
82558;SDS011;72227;42.004;21.364;2024-02-15T07:37:26;806.70;;;765.50;;
82558;SDS011;72227;42.004;21.364;2024-02-15T07:39:54;825.72;;;780.80;;
82558;SDS011;72227;42.004;21.364;2024-02-15T07:42:20;804.60;;;763.22;;
82558;SDS011;72227;42.004;21.364;2024-02-15T07:44:50;832.67;;;787.50;;
82558;SDS011;72227;42.004;21.364;2024-02-15T07:47:17;844.80;;;799.00;;
82558;SDS011;72227;42.004;21.364;2024-02-15T07:49:46;848.35;;;800.40;;
82558;SDS011;72227;42.004;21.364;2024-02-15T07:52:12;848.47;;;800.72;;
82558;SDS011;72227;42.004;21.364;2024-02-15T07:54:38;847.85;;;800.95;;
82558;SDS011;72227;42.004;21.364;2024-02-15T07:57:04;826.80;;;781.90;;
82558;SDS011;72227;42.004;21.364;2024-02-15T07:59:30;840.33;;;794.42;;
82558;SDS011;72227;42.004;21.364;2024-02-15T08:01:56;815.78;;;772.10;;
82558;SDS011;72227;42.004;21.364;2024-02-15T08:04:23;828.17;;;783.88;;
82558;SDS011;72227;42.004;21.364;2024-02-15T08:06:50;817.72;;;774.03;;
82558;SDS011;72227;42.004;21.364;2024-02-15T08:09:19;810.25;;;767.67;;
82558;SDS011;72227;42.004;21.364;2024-02-15T08:11:47;816.08;;;772.83;;
82558;SDS011;72227;42.004;21.364;2024-02-15T08:14:13;837.00;;;790.78;;
82558;SDS011;72227;42.004;21.364;2024-02-15T08:16:39;829.10;;;783.65;;
82558;SDS011;72227;42.004;21.364;2024-02-15T08:19:08;837.65;;;791.10;;
82558;SDS011;72227;42.004;21.364;2024-02-15T08:21:36;848.15;;;800.80;;
82558;SDS011;72227;42.004;21.364;2024-02-15T08:24:03;870.08;;;821.38;;
82558;SDS011;72227;42.004;21.364;2024-02-15T08:26:33;858.53;;;810.03;;
82558;SDS011;72227;42.004;21.364;2024-02-15T08:29:00;869.65;;;819.90;;
82558;SDS011;72227;42.004;21.364;2024-02-15T08:31:28;854.58;;;807.13;;
82558;SDS011;72227;42.004;21.364;2024-02-15T08:33:56;836.15;;;791.95;;
82558;SDS011;72227;42.004;21.364;2024-02-15T08:36:22;832.63;;;788.42;;
82558;SDS011;72227;42.004;21.364;2024-02-15T08:38:49;798.03;;;756.75;;
82558;SDS011;72227;42.004;21.364;2024-02-15T08:41:15;834.45;;;790.42;;
82558;SDS011;72227;42.004;21.364;2024-02-15T08:43:43;829.15;;;785.72;;
82558;SDS011;72227;42.004;21.364;2024-02-15T08:46:09;849.67;;;802.85;;
82558;SDS011;72227;42.004;21.364;2024-02-15T08:48:38;839.63;;;794.38;;
82558;SDS011;72227;42.004;21.364;2024-02-15T08:51:16;835.22;;;790.25;;
82558;SDS011;72227;42.004;21.364;2024-02-15T08:54:01;833.25;;;788.28;;
82558;SDS011;72227;42.004;21.364;2024-02-15T08:56:35;847.88;;;801.38;;
82558;SDS011;72227;42.004;21.364;2024-02-15T08:59:01;795.03;;;753.38;;
82558;SDS011;72227;42.004;21.364;2024-02-15T09:01:27;795.22;;;753.42;;
82558;SDS011;72227;42.004;21.364;2024-02-15T09:03:53;853.42;;;806.10;;
82558;SDS011;72227;42.004;21.364;2024-02-15T09:06:19;798.38;;;757.20;;
82558;SDS011;72227;42.004;21.364;2024-02-15T09:08:47;830.03;;;784.80;;
82558;SDS011;72227;42.004;21.364;2024-02-15T09:11:14;854.58;;;808.35;;
82558;SDS011;72227;42.004;21.364;2024-02-15T09:13:40;819.63;;;776.20;;
82558;SDS011;72227;42.004;21.364;2024-02-15T09:16:06;723.28;;;687.88;;
82558;SDS011;72227;42.004;21.364;2024-02-15T09:18:32;732.65;;;697.47;;
82558;SDS011;72227;42.004;21.364;2024-02-15T09:20:58;755.90;;;718.03;;
82558;SDS011;72227;42.004;21.364;2024-02-15T09:23:24;641.47;;;613.30;;
82558;SDS011;72227;42.004;21.364;2024-02-15T09:25:50;649.15;;;620.95;;
82558;SDS011;72227;42.004;21.364;2024-02-15T09:28:17;642.83;;;614.08;;
82558;SDS011;72227;42.004;21.364;2024-02-15T09:30:49;628.38;;;601.17;;
82558;SDS011;72227;42.004;21.364;2024-02-15T09:33:22;631.47;;;603.75;;
82558;SDS011;72227;42.004;21.364;2024-02-15T09:35:48;703.25;;;670.10;;
82558;SDS011;72227;42.004;21.364;2024-02-15T09:38:14;617.47;;;590.80;;
82558;SDS011;72227;42.004;21.364;2024-02-15T09:40:44;640.00;;;611.47;;
82558;SDS011;72227;42.004;21.364;2024-02-15T09:43:14;732.33;;;696.55;;
82558;SDS011;72227;42.004;21.364;2024-02-15T09:45:40;607.35;;;581.38;;
82558;SDS011;72227;42.004;21.364;2024-02-15T09:48:06;740.83;;;704.15;;
82558;SDS011;72227;42.004;21.364;2024-02-15T09:50:34;646.38;;;617.75;;
82558;SDS011;72227;42.004;21.364;2024-02-15T09:53:00;699.92;;;667.33;;
82558;SDS011;72227;42.004;21.364;2024-02-15T09:55:27;651.00;;;622.33;;
82558;SDS011;72227;42.004;21.364;2024-02-15T09:57:54;610.97;;;583.60;;
82558;SDS011;72227;42.004;21.364;2024-02-15T10:00:20;606.50;;;579.78;;
82558;SDS011;72227;42.004;21.364;2024-02-15T10:02:49;611.83;;;584.95;;
82558;SDS011;72227;42.004;21.364;2024-02-15T10:05:17;623.60;;;595.95;;
82558;SDS011;72227;42.004;21.364;2024-02-15T10:07:44;649.05;;;619.60;;
82558;SDS011;72227;42.004;21.364;2024-02-15T10:12:42;720.53;;;686.08;;
82558;SDS011;72227;42.004;21.364;2024-02-15T10:15:08;658.17;;;628.45;;
82558;SDS011;72227;42.004;21.364;2024-02-15T10:17:35;649.35;;;619.97;;
82558;SDS011;72227;42.004;21.364;2024-02-15T10:20:08;627.00;;;599.13;;
82558;SDS011;72227;42.004;21.364;2024-02-15T10:22:35;643.92;;;615.35;;
82558;SDS011;72227;42.004;21.364;2024-02-15T10:25:11;782.08;;;742.70;;
82558;SDS011;72227;42.004;21.364;2024-02-15T10:27:38;624.92;;;597.75;;
82558;SDS011;72227;42.004;21.364;2024-02-15T10:30:19;742.22;;;705.63;;
82558;SDS011;72227;42.004;21.364;2024-02-15T10:32:46;812.72;;;769.28;;
82558;SDS011;72227;42.004;21.364;2024-02-15T10:35:19;690.45;;;657.97;;
82558;SDS011;72227;42.004;21.364;2024-02-15T10:37:46;641.33;;;612.28;;
82558;SDS011;72227;42.004;21.364;2024-02-15T10:40:14;819.25;;;775.70;;
82558;SDS011;72227;42.004;21.364;2024-02-15T10:42:43;829.47;;;785.33;;
82558;SDS011;72227;42.004;21.364;2024-02-15T10:45:11;722.53;;;687.85;;
82558;SDS011;72227;42.004;21.364;2024-02-15T10:47:39;793.88;;;752.95;;
82558;SDS011;72227;42.004;21.364;2024-02-15T10:50:06;823.60;;;778.70;;
82558;SDS011;72227;42.004;21.364;2024-02-15T10:52:32;697.30;;;664.63;;
82558;SDS011;72227;42.004;21.364;2024-02-15T10:55:04;874.80;;;825.75;;
82558;SDS011;72227;42.004;21.364;2024-02-15T10:57:34;663.33;;;633.65;;
82558;SDS011;72227;42.004;21.364;2024-02-15T11:00:04;803.15;;;760.60;;
82558;SDS011;72227;42.004;21.364;2024-02-15T11:02:42;733.53;;;697.80;;
82558;SDS011;72227;42.004;21.364;2024-02-15T11:05:09;754.78;;;714.75;;
82558;SDS011;72227;42.004;21.364;2024-02-15T11:07:38;755.67;;;717.88;;
82558;SDS011;72227;42.004;21.364;2024-02-15T11:10:05;1013.22;;;931.05;;
82558;SDS011;72227;42.004;21.364;2024-02-15T11:12:33;748.45;;;709.83;;
82558;SDS011;72227;42.004;21.364;2024-02-15T11:15:00;888.90;;;834.53;;
82558;SDS011;72227;42.004;21.364;2024-02-15T11:20:07;1398.10;;;999.90;;
82558;SDS011;72227;42.004;21.364;2024-02-15T11:22:36;839.20;;;794.25;;
82558;SDS011;72227;42.004;21.364;2024-02-15T11:25:02;935.28;;;873.42;;
82558;SDS011;72227;42.004;21.364;2024-02-15T11:27:36;929.13;;;871.03;;
82558;SDS011;72227;42.004;21.364;2024-02-15T11:30:03;786.13;;;744.55;;
82558;SDS011;72227;42.004;21.364;2024-02-15T11:32:47;873.15;;;824.90;;
82558;SDS011;72227;42.004;21.364;2024-02-15T11:35:15;838.78;;;792.97;;
82558;SDS011;72227;42.004;21.364;2024-02-15T11:43:09;670.30;;;639.67;;
82558;SDS011;72227;42.004;21.364;2024-02-15T11:45:36;761.65;;;723.00;;
82558;SDS011;72227;42.004;21.364;2024-02-15T11:48:09;681.63;;;650.45;;
82558;SDS011;72227;42.004;21.364;2024-02-15T11:50:38;679.53;;;647.70;;
82558;SDS011;72227;42.004;21.364;2024-02-15T11:53:05;849.17;;;799.05;;
82558;SDS011;72227;42.004;21.364;2024-02-15T11:55:34;776.00;;;737.25;;
82558;SDS011;72227;42.004;21.364;2024-02-15T11:58:03;697.33;;;664.53;;
82558;SDS011;72227;42.004;21.364;2024-02-15T12:00:32;709.05;;;675.65;;
82558;SDS011;72227;42.004;21.364;2024-02-15T12:03:18;700.90;;;667.67;;
82558;SDS011;72227;42.004;21.364;2024-02-15T12:06:03;797.15;;;755.95;;
82558;SDS011;72227;42.004;21.364;2024-02-15T12:08:50;1164.85;;;999.90;;
82558;SDS011;72227;42.004;21.364;2024-02-15T12:11:35;723.88;;;689.00;;
82558;SDS011;72227;42.004;21.364;2024-02-15T12:14:20;657.95;;;628.88;;
82558;SDS011;72227;42.004;21.364;2024-02-15T12:17:05;713.50;;;679.90;;
82558;SDS011;72227;42.004;21.364;2024-02-15T12:19:51;716.90;;;684.28;;
82558;SDS011;72227;42.004;21.364;2024-02-15T12:22:20;744.08;;;708.20;;
82558;SDS011;72227;42.004;21.364;2024-02-15T12:25:19;701.78;;;668.53;;
82558;SDS011;72227;42.004;21.364;2024-02-15T12:27:39;904.45;;;844.67;;
82558;SDS011;72227;42.004;21.364;2024-02-15T12:30:06;1156.82;;;999.90;;
82558;SDS011;72227;42.004;21.364;2024-02-15T12:32:36;1059.18;;;973.80;;
82558;SDS011;72227;42.004;21.364;2024-02-15T12:35:10;693.63;;;661.75;;
82558;SDS011;72227;42.004;21.364;2024-02-15T12:38:05;630.47;;;602.30;;
82558;SDS011;72227;42.004;21.364;2024-02-15T12:40:31;663.83;;;632.67;;
82558;SDS011;72227;42.004;21.364;2024-02-15T12:42:58;647.63;;;619.38;;
82558;SDS011;72227;42.004;21.364;2024-02-15T12:45:25;645.28;;;616.33;;
82558;SDS011;72227;42.004;21.364;2024-02-15T12:47:53;646.15;;;617.63;;
82558;SDS011;72227;42.004;21.364;2024-02-15T12:50:20;633.67;;;605.92;;
82558;SDS011;72227;42.004;21.364;2024-02-15T12:52:50;651.88;;;622.22;;
82558;SDS011;72227;42.004;21.364;2024-02-15T12:55:19;618.72;;;592.08;;
82558;SDS011;72227;42.004;21.364;2024-02-15T12:57:49;637.40;;;609.88;;
82558;SDS011;72227;42.004;21.364;2024-02-15T13:00:19;621.60;;;594.63;;
82558;SDS011;72227;42.004;21.364;2024-02-15T13:02:49;614.25;;;587.60;;
82558;SDS011;72227;42.004;21.364;2024-02-15T13:05:16;634.45;;;606.95;;
82558;SDS011;72227;42.004;21.364;2024-02-15T13:07:47;611.65;;;585.58;;
82558;SDS011;72227;42.004;21.364;2024-02-15T13:10:13;639.75;;;610.97;;
82558;SDS011;72227;42.004;21.364;2024-02-15T13:12:43;676.85;;;645.75;;
82558;SDS011;72227;42.004;21.364;2024-02-15T13:15:10;624.05;;;596.70;;
82558;SDS011;72227;42.004;21.364;2024-02-15T13:17:39;616.08;;;588.97;;
82558;SDS011;72227;42.004;21.364;2024-02-15T13:20:06;635.40;;;608.17;;
82558;SDS011;72227;42.004;21.364;2024-02-15T13:22:36;623.47;;;596.60;;
82558;SDS011;72227;42.004;21.364;2024-02-15T13:25:04;636.67;;;607.65;;
82558;SDS011;72227;42.004;21.364;2024-02-15T13:27:32;614.35;;;588.00;;
82558;SDS011;72227;42.004;21.364;2024-02-15T13:29:58;626.05;;;598.85;;
82558;SDS011;72227;42.004;21.364;2024-02-15T13:32:24;622.30;;;595.47;;
82558;SDS011;72227;42.004;21.364;2024-02-15T13:34:50;637.88;;;610.00;;
82558;SDS011;72227;42.004;21.364;2024-02-15T13:37:19;646.53;;;618.42;;
82558;SDS011;72227;42.004;21.364;2024-02-15T13:39:48;616.95;;;590.22;;
82558;SDS011;72227;42.004;21.364;2024-02-15T13:42:15;619.38;;;592.38;;
82558;SDS011;72227;42.004;21.364;2024-02-15T13:44:42;674.60;;;645.70;;
82558;SDS011;72227;42.004;21.364;2024-02-15T13:47:08;639.30;;;610.72;;
82558;SDS011;72227;42.004;21.364;2024-02-15T13:49:36;669.10;;;639.10;;
82558;SDS011;72227;42.004;21.364;2024-02-15T13:52:03;643.60;;;615.08;;
82558;SDS011;72227;42.004;21.364;2024-02-15T13:54:31;642.72;;;614.13;;
82558;SDS011;72227;42.004;21.364;2024-02-15T13:56:57;696.90;;;664.83;;
82558;SDS011;72227;42.004;21.364;2024-02-15T13:59:25;702.42;;;670.25;;
82558;SDS011;72227;42.004;21.364;2024-02-15T14:01:52;683.00;;;651.97;;